Time;durP1;ratioP1;P1;durP2;ratioP2;P2;SDS_P1;SDS_P2;PMS_P1;PMS_P2;Temp;Humidity;BMP_temperature;BMP_pressure;BME280_temperature;BME280_humidity;BME280_pressure;Samples;Min_cycle;Max_cycle;Signal;HPM_P1;HPM_P2
2022/07/26 00:00:04;;;;;;;;;;;25.10;69.10;;;;;;5040497;28;20522;-78
2022/07/26 00:02:31;;;;;;;;;;;25.10;69.20;;;;;;5043537;28;19928;-78
2022/07/26 00:04:58;;;;;;;;;;;25.00;69.10;;;;;;5044121;28;19924;-78
2022/07/26 00:07:25;;;;;;;;;;;25.00;69.10;;;;;;5039324;28;19932;-77
2022/07/26 00:09:52;;;;;;;;;;;25.00;69.20;;;;;;5041513;28;19926;-78
2022/07/26 00:12:18;;;;;;;;;;;25.00;69.30;;;;;;5038542;28;19983;-77
2022/07/26 00:14:46;;;;;;;;;;;24.90;69.20;;;;;;5040409;28;19933;-78
2022/07/26 00:17:13;;;;;;;;;;;24.90;69.30;;;;;;5044015;28;19924;-78
2022/07/26 00:19:40;;;;;;;;;;;24.90;69.40;;;;;;5040959;28;19925;-78
2022/07/26 00:24:51;;;;;;;;;;;24.80;69.50;;;;;;5037129;28;19931;-78
2022/07/26 00:27:18;;;;;;;;;;;24.80;69.50;;;;;;5046055;28;19925;-78
2022/07/26 00:29:45;;;;;;;;;;;24.80;69.50;;;;;;5037068;28;20013;-77
2022/07/26 00:32:13;;;;;;;;;;;24.80;69.60;;;;;;5037896;28;19925;-78
2022/07/26 00:34:40;;;;;;;;;;;24.80;69.60;;;;;;5038800;28;19925;-78
2022/07/26 00:37:06;;;;;;;;;;;24.70;69.50;;;;;;5039013;28;20000;-78
2022/07/26 00:39:33;;;;;;;;;;;24.70;69.60;;;;;;5038241;28;19932;-78
2022/07/26 00:42:00;;;;;;;;;;;24.70;69.60;;;;;;5038528;28;19983;-78
2022/07/26 00:44:36;;;;;;;;;;;24.70;69.70;;;;;;5039250;28;20394;-78
2022/07/26 00:47:03;;;;;;;;;;;24.70;69.80;;;;;;5037765;28;19940;-78
2022/07/26 00:49:31;;;;;;;;;;;24.70;69.80;;;;;;5035559;28;20559;-78
2022/07/26 00:51:58;;;;;;;;;;;24.60;69.80;;;;;;5039008;28;19929;-78
2022/07/26 00:54:25;;;;;;;;;;;24.60;69.90;;;;;;5033391;28;20693;-78
2022/07/26 00:56:52;;;;;;;;;;;24.60;69.90;;;;;;5039288;28;19933;-77
2022/07/26 00:59:19;;;;;;;;;;;24.60;70.00;;;;;;5036528;28;20409;-78
2022/07/26 01:01:47;;;;;;;;;;;24.50;69.90;;;;;;5037319;28;19998;-78
2022/07/26 01:04:14;;;;;;;;;;;24.50;70.00;;;;;;5042127;28;20154;-78
2022/07/26 01:06:42;;;;;;;;;;;24.50;70.10;;;;;;5037263;28;19972;-78
2022/07/26 01:09:09;;;;;;;;;;;24.50;70.10;;;;;;5036570;28;19986;-78
2022/07/26 01:11:36;;;;;;;;;;;24.50;70.20;;;;;;5035931;28;19932;-78
2022/07/26 01:14:03;;;;;;;;;;;24.50;70.20;;;;;;5041934;28;19971;-78
2022/07/26 01:16:30;;;;;;;;;;;24.40;70.10;;;;;;5041737;28;19964;-78
2022/07/26 01:18:56;;;;;;;;;;;24.40;70.20;;;;;;5037216;28;19936;-78
2022/07/26 01:21:29;;;;;;;;;;;24.40;70.30;;;;;;5037002;28;21349;-78
2022/07/26 01:23:56;;;;;;;;;;;24.40;70.30;;;;;;5040083;28;20016;-78
2022/07/26 01:26:23;;;;;;;;;;;24.40;70.40;;;;;;5042211;28;19925;-78
2022/07/26 01:28:50;;;;;;;;;;;24.30;70.40;;;;;;5037263;28;19933;-78
2022/07/26 01:31:19;;;;;;;;;;;24.30;70.40;;;;;;5041876;28;19960;-78
2022/07/26 01:33:46;;;;;;;;;;;24.30;70.50;;;;;;5037022;28;19925;-78
2022/07/26 01:36:12;;;;;;;;;;;24.30;70.60;;;;;;5034191;28;20347;-77
2022/07/26 01:38:41;;;;;;;;;;;24.20;70.60;;;;;;5035779;28;20036;-77
2022/07/26 01:41:08;;;;;;;;;;;24.20;70.60;;;;;;5039030;28;20076;-78
2022/07/26 01:43:35;;;;;;;;;;;24.20;70.70;;;;;;5040001;28;20007;-78
2022/07/26 01:46:02;;;;;;;;;;;24.20;70.70;;;;;;5034392;28;19991;-78
2022/07/26 01:48:29;;;;;;;;;;;24.20;70.80;;;;;;5040930;28;19929;-78
2022/07/26 01:50:56;;;;;;;;;;;24.10;70.80;;;;;;5037778;28;19929;-78
2022/07/26 01:53:23;;;;;;;;;;;24.20;70.90;;;;;;5017422;28;20141;-78
2022/07/26 01:55:51;;;;;;;;;;;24.10;70.90;;;;;;5024677;28;20091;-78
2022/07/26 01:58:18;;;;;;;;;;;24.10;71.00;;;;;;5037146;28;19988;-78
2022/07/26 02:00:45;;;;;;;;;;;24.10;71.10;;;;;;5039507;28;19929;-78
2022/07/26 02:03:12;;;;;;;;;;;24.10;71.10;;;;;;5038502;28;20007;-78
2022/07/26 02:05:39;;;;;;;;;;;24.00;71.00;;;;;;5038670;28;19929;-78
2022/07/26 02:08:06;;;;;;;;;;;24.00;71.00;;;;;;5041184;28;19929;-78
2022/07/26 02:13:15;;;;;;;;;;;24.00;71.20;;;;;;5034812;28;20063;-77
2022/07/26 02:15:41;;;;;;;;;;;24.00;71.30;;;;;;5035469;28;19937;-78
2022/07/26 02:18:08;;;;;;;;;;;24.00;71.40;;;;;;5036488;28;20403;-78
2022/07/26 02:20:35;;;;;;;;;;;23.90;71.30;;;;;;5016813;28;19928;-77
2022/07/26 02:23:02;;;;;;;;;;;23.90;71.40;;;;;;5039110;28;19928;-78
2022/07/26 02:25:29;;;;;;;;;;;23.90;71.50;;;;;;5021041;28;20439;-78
2022/07/26 02:27:57;;;;;;;;;;;23.90;71.50;;;;;;5035771;28;19925;-78
2022/07/26 02:30:25;;;;;;;;;;;23.90;71.60;;;;;;5039128;28;20019;-78
2022/07/26 02:32:52;;;;;;;;;;;23.90;71.50;;;;;;5037652;28;19936;-78
2022/07/26 02:35:19;;;;;;;;;;;23.80;71.00;;;;;;5040349;28;20016;-78
2022/07/26 02:37:46;;;;;;;;;;;23.80;71.50;;;;;;5036105;28;19986;-78
2022/07/26 02:40:13;;;;;;;;;;;23.80;71.50;;;;;;5041151;28;19925;-77
2022/07/26 02:42:39;;;;;;;;;;;23.80;71.60;;;;;;5022327;28;19933;-78
2022/07/26 02:45:07;;;;;;;;;;;23.80;71.70;;;;;;5034854;28;19992;-78
2022/07/26 02:47:35;;;;;;;;;;;23.80;71.70;;;;;;5040921;28;19924;-78
2022/07/26 02:50:02;;;;;;;;;;;23.70;71.60;;;;;;5037421;28;19932;-78
2022/07/26 02:52:28;;;;;;;;;;;23.70;71.70;;;;;;5035352;28;19925;-78
2022/07/26 02:54:56;;;;;;;;;;;23.70;71.70;;;;;;5039878;28;20398;-78
2022/07/26 02:57:23;;;;;;;;;;;23.70;71.60;;;;;;5039590;28;19939;-78
2022/07/26 02:59:50;;;;;;;;;;;23.70;71.90;;;;;;5039080;28;19931;-78
2022/07/26 03:02:17;;;;;;;;;;;23.60;72.00;;;;;;5020065;28;19933;-78
2022/07/26 03:04:45;;;;;;;;;;;23.60;72.10;;;;;;5040930;28;19929;-78
2022/07/26 03:07:13;;;;;;;;;;;23.60;72.20;;;;;;5039721;28;20388;-78
2022/07/26 03:09:40;;;;;;;;;;;23.60;72.20;;;;;;5038060;28;20007;-78
2022/07/26 03:12:08;;;;;;;;;;;23.60;72.50;;;;;;5023855;28;20043;-78
2022/07/26 03:14:35;;;;;;;;;;;23.60;72.60;;;;;;5036417;28;19960;-78
2022/07/26 03:17:02;;;;;;;;;;;23.50;72.60;;;;;;5036278;28;20031;-78
2022/07/26 03:19:29;;;;;;;;;;;23.50;72.70;;;;;;5036371;28;19932;-78
2022/07/26 03:21:57;;;;;;;;;;;23.50;72.90;;;;;;5038532;28;20458;-78
2022/07/26 03:24:24;;;;;;;;;;;23.50;73.00;;;;;;5037420;28;20387;-78
2022/07/26 03:26:51;;;;;;;;;;;23.40;72.90;;;;;;5032205;28;20015;-78
2022/07/26 03:29:18;;;;;;;;;;;23.40;73.00;;;;;;5024726;28;20306;-77
2022/07/26 03:31:45;;;;;;;;;;;23.40;73.00;;;;;;5035147;28;19932;-78
2022/07/26 03:34:11;;;;;;;;;;;23.40;73.10;;;;;;5038257;28;20027;-78
2022/07/26 03:36:38;;;;;;;;;;;23.40;73.40;;;;;;5031451;28;19936;-78
2022/07/26 03:39:07;;;;;;;;;;;23.40;73.30;;;;;;5040569;28;19959;-78
2022/07/26 03:41:34;;;;;;;;;;;23.30;73.40;;;;;;5034123;28;19956;-78
2022/07/26 03:44:01;;;;;;;;;;;23.30;73.50;;;;;;5035400;28;19928;-78
2022/07/26 03:46:28;;;;;;;;;;;23.30;73.70;;;;;;5031964;28;19968;-78
2022/07/26 03:48:55;;;;;;;;;;;23.30;73.60;;;;;;5042569;28;19939;-78
2022/07/26 03:51:22;;;;;;;;;;;23.30;73.80;;;;;;5027000;28;19924;-78
2022/07/26 03:53:50;;;;;;;;;;;23.20;73.80;;;;;;5038631;28;19987;-78
2022/07/26 03:56:30;;;;;;;;;;;23.20;73.80;;;;;;5042906;28;19940;-78
2022/07/26 03:58:58;;;;;;;;;;;23.20;74.10;;;;;;5040560;28;19928;-79
2022/07/26 04:01:26;;;;;;;;;;;23.20;74.00;;;;;;5041670;28;19925;-78
2022/07/26 04:03:53;;;;;;;;;;;23.20;74.20;;;;;;5033976;28;19972;-79
2022/07/26 04:06:19;;;;;;;;;;;23.20;74.40;;;;;;5036676;28;19924;-78
2022/07/26 04:08:46;;;;;;;;;;;23.10;74.80;;;;;;5041740;28;19929;-78
2022/07/26 04:11:13;;;;;;;;;;;23.10;75.00;;;;;;5045171;28;19925;-78
2022/07/26 04:13:42;;;;;;;;;;;23.10;74.90;;;;;;5039500;28;19936;-78
2022/07/26 04:16:08;;;;;;;;;;;23.10;74.60;;;;;;5036058;28;19931;-79
2022/07/26 04:18:35;;;;;;;;;;;23.10;74.90;;;;;;5043763;28;20333;-78
2022/07/26 04:21:02;;;;;;;;;;;23.00;74.80;;;;;;5026683;28;19929;-78
2022/07/26 04:23:29;;;;;;;;;;;23.10;74.90;;;;;;5042851;28;19928;-78
2022/07/26 04:25:56;;;;;;;;;;;23.00;74.80;;;;;;5037474;28;19944;-78
2022/07/26 04:28:25;;;;;;;;;;;23.00;74.90;;;;;;5041255;28;20097;-78
2022/07/26 04:30:53;;;;;;;;;;;23.00;74.90;;;;;;5025217;28;19932;-78
2022/07/26 04:33:20;;;;;;;;;;;23.00;75.00;;;;;;5041496;28;19933;-78
2022/07/26 04:35:47;;;;;;;;;;;22.90;75.00;;;;;;5042548;28;20022;-78
2022/07/26 04:38:17;;;;;;;;;;;22.90;75.00;;;;;;5038652;28;19925;-77
2022/07/26 04:40:43;;;;;;;;;;;22.90;75.10;;;;;;5025646;28;19960;-78
2022/07/26 04:43:10;;;;;;;;;;;22.90;75.20;;;;;;5040554;28;20022;-78
2022/07/26 04:45:38;;;;;;;;;;;22.90;75.20;;;;;;5040154;28;20334;-78
2022/07/26 04:48:09;;;;;;;;;;;22.80;75.20;;;;;;5037543;28;19925;-77
2022/07/26 04:50:36;;;;;;;;;;;22.80;75.20;;;;;;5018721;28;20307;-78
2022/07/26 04:53:05;;;;;;;;;;;22.80;75.20;;;;;;5034809;28;19929;-78
2022/07/26 04:55:32;;;;;;;;;;;22.80;75.30;;;;;;5026010;28;20448;-78
2022/07/26 04:57:58;;;;;;;;;;;22.80;75.40;;;;;;5039509;28;19925;-77
2022/07/26 05:00:25;;;;;;;;;;;22.80;75.60;;;;;;5027028;28;20330;-78
2022/07/26 05:02:54;;;;;;;;;;;22.70;75.40;;;;;;5042792;28;19959;-78
2022/07/26 05:05:22;;;;;;;;;;;22.70;75.50;;;;;;5038100;28;19933;-79
2022/07/26 05:07:50;;;;;;;;;;;22.70;75.60;;;;;;5040568;28;19987;-79
2022/07/26 05:10:18;;;;;;;;;;;22.70;75.60;;;;;;5042024;28;20303;-78
2022/07/26 05:12:45;;;;;;;;;;;22.70;75.70;;;;;;5037787;28;20438;-78
2022/07/26 05:15:12;;;;;;;;;;;22.60;75.70;;;;;;5024430;28;19925;-79
2022/07/26 05:17:39;;;;;;;;;;;22.60;75.80;;;;;;5042210;28;19971;-78
2022/07/26 05:20:06;;;;;;;;;;;22.60;75.90;;;;;;5043288;28;19956;-79
2022/07/26 05:22:35;;;;;;;;;;;22.60;75.90;;;;;;5044712;28;19929;-78
2022/07/26 05:25:03;;;;;;;;;;;22.60;76.00;;;;;;5039322;28;19952;-79
2022/07/26 05:27:29;;;;;;;;;;;22.60;76.00;;;;;;5038117;28;19936;-79
2022/07/26 05:29:56;;;;;;;;;;;22.60;76.10;;;;;;5043522;28;19955;-79
2022/07/26 05:32:23;;;;;;;;;;;22.50;76.00;;;;;;5043977;28;19925;-78
2022/07/26 05:34:50;;;;;;;;;;;22.50;75.90;;;;;;5043730;28;19928;-79
2022/07/26 05:37:17;;;;;;;;;;;22.50;75.90;;;;;;5041708;28;20025;-78
2022/07/26 05:39:45;;;;;;;;;;;22.50;76.00;;;;;;5042188;28;20973;-78
2022/07/26 05:42:12;;;;;;;;;;;22.50;76.10;;;;;;5043373;28;20387;-79
2022/07/26 05:44:39;;;;;;;;;;;22.50;76.10;;;;;;5037422;28;20304;-79
2022/07/26 05:47:06;;;;;;;;;;;22.50;76.00;;;;;;5037957;28;19937;-78
2022/07/26 05:49:33;;;;;;;;;;;22.50;76.00;;;;;;5034352;28;19929;-80
2022/07/26 05:52:00;;;;;;;;;;;22.40;76.10;;;;;;5027368;28;19940;-78
2022/07/26 05:54:26;;;;;;;;;;;22.40;76.60;;;;;;5035448;28;20326;-78
2022/07/26 05:56:55;;;;;;;;;;;22.50;77.10;;;;;;5034101;28;19933;-77
2022/07/26 05:59:21;;;;;;;;;;;22.40;77.20;;;;;;5038731;28;19947;-77
2022/07/26 06:01:49;;;;;;;;;;;22.40;77.30;;;;;;5041736;28;19933;-77
2022/07/26 06:04:16;;;;;;;;;;;22.40;77.50;;;;;;5025546;28;20497;-78
2022/07/26 06:06:42;;;;;;;;;;;22.40;77.50;;;;;;5040822;28;19925;-77
2022/07/26 06:09:09;;;;;;;;;;;22.40;77.40;;;;;;5046575;28;19925;-77
2022/07/26 06:11:36;;;;;;;;;;;22.40;77.30;;;;;;5019530;28;19957;-77
2022/07/26 06:14:04;;;;;;;;;;;22.40;77.20;;;;;;5040327;28;19968;-78
2022/07/26 06:16:31;;;;;;;;;;;22.40;76.90;;;;;;5048306;28;19971;-78
2022/07/26 06:18:58;;;;;;;;;;;22.30;76.70;;;;;;5038005;28;20026;-78
2022/07/26 06:21:25;;;;;;;;;;;22.30;76.60;;;;;;5040423;28;19928;-78
2022/07/26 06:23:52;;;;;;;;;;;22.30;76.60;;;;;;5039007;28;19971;-77
2022/07/26 06:26:18;;;;;;;;;;;22.30;76.60;;;;;;5040016;28;19929;-77
2022/07/26 06:28:45;;;;;;;;;;;22.30;76.50;;;;;;5035974;28;20395;-78
2022/07/26 06:31:13;;;;;;;;;;;22.30;76.70;;;;;;5041127;28;19926;-77
2022/07/26 06:33:41;;;;;;;;;;;22.30;76.90;;;;;;5039892;28;19925;-78
2022/07/26 06:36:08;;;;;;;;;;;22.30;76.80;;;;;;5025934;28;19936;-77
2022/07/26 06:38:35;;;;;;;;;;;22.30;76.90;;;;;;5040283;28;19971;-77
2022/07/26 06:41:01;;;;;;;;;;;22.30;76.90;;;;;;5039632;28;20379;-77
2022/07/26 06:43:30;;;;;;;;;;;22.30;77.00;;;;;;5044529;28;19932;-78
2022/07/26 06:45:57;;;;;;;;;;;22.30;77.00;;;;;;5040690;28;19929;-77
2022/07/26 06:48:25;;;;;;;;;;;22.30;77.00;;;;;;5041338;28;19929;-77
2022/07/26 06:50:52;;;;;;;;;;;22.30;76.80;;;;;;5045789;28;19986;-78
2022/07/26 06:53:19;;;;;;;;;;;22.30;76.80;;;;;;5039948;28;19925;-77
2022/07/26 06:55:46;;;;;;;;;;;22.30;76.90;;;;;;5023266;28;19960;-78
2022/07/26 06:58:13;;;;;;;;;;;22.30;77.20;;;;;;5024606;28;19925;-78
2022/07/26 07:00:40;;;;;;;;;;;22.30;77.30;;;;;;5040028;28;20019;-78
2022/07/26 07:03:07;;;;;;;;;;;22.30;77.20;;;;;;5040455;28;23752;-78
2022/07/26 07:05:35;;;;;;;;;;;22.30;77.10;;;;;;5043365;28;19925;-78
2022/07/26 07:08:02;;;;;;;;;;;22.30;77.50;;;;;;5042799;28;19925;-77
2022/07/26 07:10:28;;;;;;;;;;;22.30;77.50;;;;;;5026106;28;19998;-78
2022/07/26 07:12:55;;;;;;;;;;;22.30;77.40;;;;;;5042824;28;20020;-78
2022/07/26 07:15:22;;;;;;;;;;;22.30;77.50;;;;;;5038591;28;19925;-77
2022/07/26 07:17:50;;;;;;;;;;;22.30;77.40;;;;;;5038660;28;19929;-77
2022/07/26 07:20:17;;;;;;;;;;;22.30;77.50;;;;;;5038641;28;19931;-78
2022/07/26 07:22:45;;;;;;;;;;;22.30;77.20;;;;;;5036922;28;19924;-78
2022/07/26 07:25:12;;;;;;;;;;;22.30;77.10;;;;;;5039835;28;19936;-77
2022/07/26 07:27:39;;;;;;;;;;;22.30;77.30;;;;;;5032032;28;19929;-78
2022/07/26 07:30:07;;;;;;;;;;;22.30;77.30;;;;;;5044588;28;19925;-78
2022/07/26 07:32:33;;;;;;;;;;;22.30;77.30;;;;;;5044091;28;19957;-78
2022/07/26 07:35:00;;;;;;;;;;;22.30;77.20;;;;;;5041636;28;20027;-78
2022/07/26 07:37:27;;;;;;;;;;;22.30;77.20;;;;;;5036959;28;19932;-78
2022/07/26 07:39:55;;;;;;;;;;;22.30;77.20;;;;;;5038494;28;19950;-78
2022/07/26 07:42:22;;;;;;;;;;;22.30;77.20;;;;;;5036308;28;19925;-78
2022/07/26 07:44:49;;;;;;;;;;;22.30;77.10;;;;;;5035981;28;19937;-77
2022/07/26 07:47:16;;;;;;;;;;;22.30;77.00;;;;;;5042748;28;19979;-78
2022/07/26 07:49:43;;;;;;;;;;;22.30;76.80;;;;;;5034917;28;19944;-77
2022/07/26 07:52:09;;;;;;;;;;;22.30;76.80;;;;;;5043342;28;19947;-78
2022/07/26 07:54:36;;;;;;;;;;;22.30;76.90;;;;;;5038219;28;19936;-78
2022/07/26 07:57:04;;;;;;;;;;;22.30;77.10;;;;;;5023685;28;19932;-77
2022/07/26 07:59:31;;;;;;;;;;;22.30;76.90;;;;;;5042952;28;19929;-78
2022/07/26 08:01:58;;;;;;;;;;;22.30;77.00;;;;;;5042431;28;19936;-78
2022/07/26 08:04:25;;;;;;;;;;;22.30;76.90;;;;;;5043830;28;19925;-77
2022/07/26 08:06:52;;;;;;;;;;;22.20;76.70;;;;;;5041943;28;19995;-78
2022/07/26 08:09:19;;;;;;;;;;;22.30;76.70;;;;;;5044269;28;19975;-77
2022/07/26 08:11:46;;;;;;;;;;;22.20;76.60;;;;;;5037488;28;20402;-78
2022/07/26 08:14:14;;;;;;;;;;;22.30;76.60;;;;;;5047498;28;19928;-78
2022/07/26 08:16:43;;;;;;;;;;;22.20;76.50;;;;;;5044878;28;19929;-78
2022/07/26 08:19:10;;;;;;;;;;;22.20;76.30;;;;;;5041104;28;20414;-77
2022/07/26 08:21:37;;;;;;;;;;;22.30;76.40;;;;;;5046373;28;19925;-78
2022/07/26 08:24:04;;;;;;;;;;;22.20;76.30;;;;;;5042829;28;19925;-78
2022/07/26 08:26:30;;;;;;;;;;;22.30;76.20;;;;;;5046912;28;19970;-77
2022/07/26 08:28:57;;;;;;;;;;;22.30;76.00;;;;;;5028758;28;20019;-78
2022/07/26 08:31:25;;;;;;;;;;;22.30;76.10;;;;;;5043889;28;19929;-78
2022/07/26 08:33:52;;;;;;;;;;;22.30;75.90;;;;;;5038569;28;19975;-77
2022/07/26 08:36:19;;;;;;;;;;;22.20;75.20;;;;;;5045826;28;20460;-78
2022/07/26 08:38:46;;;;;;;;;;;22.20;75.20;;;;;;5044351;28;19932;-78
2022/07/26 08:41:13;;;;;;;;;;;22.20;75.30;;;;;;5041609;28;20023;-78
2022/07/26 08:43:39;;;;;;;;;;;22.20;75.40;;;;;;5038467;28;19982;-77
2022/07/26 08:46:06;;;;;;;;;;;22.20;75.50;;;;;;5050072;28;20339;-78
2022/07/26 08:48:35;;;;;;;;;;;22.30;75.40;;;;;;5042115;28;19987;-78
2022/07/26 08:51:07;;;;;;;;;;;22.20;75.20;;;;;;5041032;28;19925;-77
2022/07/26 08:53:35;;;;;;;;;;;22.20;75.30;;;;;;5047782;28;20437;-78
2022/07/26 08:56:02;;;;;;;;;;;22.30;75.40;;;;;;5043256;28;19986;-77
2022/07/26 08:58:31;;;;;;;;;;;22.30;75.30;;;;;;5046465;28;20391;-77
2022/07/26 09:01:05;;;;;;;;;;;22.20;75.30;;;;;;5040210;28;19979;-77
2022/07/26 09:03:32;;;;;;;;;;;22.20;75.40;;;;;;5046665;28;20280;-78
2022/07/26 09:06:12;;;;;;;;;;;22.30;75.70;;;;;;5028366;28;19979;-78
2022/07/26 09:08:39;;;;;;;;;;;22.30;75.40;;;;;;5046181;28;19932;-78
2022/07/26 09:11:25;;;;;;;;;;;22.30;74.70;;;;;;5041149;28;19969;-78
2022/07/26 09:13:53;;;;;;;;;;;22.30;74.70;;;;;;5036296;28;20589;-78
2022/07/26 09:16:19;;;;;;;;;;;22.30;74.60;;;;;;5043437;28;20465;-78
2022/07/26 09:18:46;;;;;;;;;;;22.30;74.80;;;;;;5029936;28;21030;-77
2022/07/26 09:21:27;;;;;;;;;;;22.30;75.20;;;;;;5048315;28;19974;-78
2022/07/26 09:23:54;;;;;;;;;;;22.30;75.40;;;;;;5038359;28;19925;-78
2022/07/26 09:26:21;;;;;;;;;;;22.30;75.20;;;;;;5045427;28;19996;-78
2022/07/26 09:29:01;;;;;;;;;;;22.30;75.20;;;;;;5026326;28;19964;-78
2022/07/26 09:31:27;;;;;;;;;;;22.30;75.10;;;;;;5044379;28;20399;-78
2022/07/26 09:33:54;;;;;;;;;;;22.30;74.70;;;;;;5045137;28;19925;-78
2022/07/26 09:36:21;;;;;;;;;;;22.30;74.30;;;;;;5040774;28;19933;-78
2022/07/26 09:38:50;;;;;;;;;;;22.30;74.20;;;;;;5041758;28;20350;-77
2022/07/26 09:41:18;;;;;;;;;;;22.30;74.00;;;;;;5037900;28;19925;-78
2022/07/26 09:43:45;;;;;;;;;;;22.30;73.70;;;;;;5044407;28;20016;-78
2022/07/26 09:46:12;;;;;;;;;;;22.30;73.60;;;;;;5047461;28;19928;-77
2022/07/26 09:48:39;;;;;;;;;;;22.30;73.60;;;;;;5042258;28;19933;-77
2022/07/26 09:51:06;;;;;;;;;;;22.30;73.70;;;;;;5035016;28;19940;-78
2022/07/26 09:53:38;;;;;;;;;;;22.30;73.80;;;;;;5039977;28;19972;-78
2022/07/26 09:56:06;;;;;;;;;;;22.30;73.20;;;;;;5043328;28;19975;-78
2022/07/26 09:58:33;;;;;;;;;;;22.40;72.90;;;;;;5027200;28;19979;-78
2022/07/26 10:01:00;;;;;;;;;;;22.30;72.70;;;;;;5043339;28;20387;-78
2022/07/26 10:03:28;;;;;;;;;;;22.40;72.60;;;;;;5044393;28;19964;-78
2022/07/26 10:05:56;;;;;;;;;;;22.40;72.30;;;;;;5042409;28;19928;-77
2022/07/26 10:08:23;;;;;;;;;;;22.40;72.30;;;;;;5040865;28;19929;-78
2022/07/26 10:10:54;;;;;;;;;;;22.40;72.30;;;;;;5044142;28;19933;-78
2022/07/26 10:13:23;;;;;;;;;;;22.40;72.30;;;;;;5045187;28;19931;-78
2022/07/26 10:15:50;;;;;;;;;;;22.40;72.30;;;;;;5045023;28;19928;-78
2022/07/26 10:18:36;;;;;;;;;;;22.40;72.10;;;;;;5024964;28;19924;-77
2022/07/26 10:21:17;;;;;;;;;;;22.40;72.70;;;;;;5025309;28;20365;-77
2022/07/26 10:23:44;;;;;;;;;;;22.40;72.00;;;;;;5042470;28;19971;-77
2022/07/26 10:26:13;;;;;;;;;;;22.40;72.00;;;;;;5025466;28;19925;-78
2022/07/26 10:28:41;;;;;;;;;;;22.40;72.10;;;;;;5041237;28;19976;-78
2022/07/26 10:31:28;;;;;;;;;;;22.40;71.10;;;;;;5042461;28;19990;-78
2022/07/26 10:33:56;;;;;;;;;;;22.40;71.00;;;;;;5039375;28;20311;-78
2022/07/26 10:36:23;;;;;;;;;;;22.40;71.10;;;;;;5033409;28;19925;-77
2022/07/26 10:39:07;;;;;;;;;;;22.40;70.80;;;;;;5041326;28;19979;-77
2022/07/26 10:41:35;;;;;;;;;;;22.50;71.10;;;;;;5041935;28;19933;-78
2022/07/26 10:44:16;;;;;;;;;;;22.40;70.90;;;;;;5040669;28;19932;-78
2022/07/26 10:47:04;;;;;;;;;;;22.50;70.40;;;;;;5036355;28;20311;-78
2022/07/26 10:49:34;;;;;;;;;;;22.50;70.60;;;;;;5036888;28;20419;-78
2022/07/26 10:52:08;;;;;;;;;;;22.50;70.10;;;;;;5042362;28;19925;-77
2022/07/26 10:54:54;;;;;;;;;;;22.50;69.30;;;;;;5041257;28;19944;-78
2022/07/26 10:57:20;;;;;;;;;;;22.50;69.50;;;;;;5040886;28;20395;-78
2022/07/26 10:59:49;;;;;;;;;;;22.50;69.10;;;;;;5024071;28;19925;-78
2022/07/26 11:02:17;;;;;;;;;;;22.50;68.60;;;;;;5043246;28;19983;-78
2022/07/26 11:04:44;;;;;;;;;;;22.50;68.60;;;;;;5040880;28;19978;-77
2022/07/26 11:07:11;;;;;;;;;;;22.60;68.30;;;;;;5040950;28;19931;-77
2022/07/26 11:09:38;;;;;;;;;;;22.60;68.20;;;;;;5040080;28;20311;-78
2022/07/26 11:12:20;;;;;;;;;;;22.60;68.20;;;;;;5038345;28;20457;-78
2022/07/26 11:14:47;;;;;;;;;;;22.50;68.90;;;;;;5033858;28;19936;-78
2022/07/26 11:17:24;;;;;;;;;;;22.60;68.90;;;;;;5036007;28;19971;-76
2022/07/26 11:19:51;;;;;;;;;;;22.60;68.80;;;;;;5041260;28;19991;-78
2022/07/26 11:22:18;;;;;;;;;;;22.60;68.80;;;;;;5035846;28;19967;-77
2022/07/26 11:24:44;;;;;;;;;;;22.60;69.30;;;;;;5043633;28;20387;-78
2022/07/26 11:27:11;;;;;;;;;;;22.60;69.00;;;;;;5027653;28;19929;-77
2022/07/26 11:29:38;;;;;;;;;;;22.70;68.90;;;;;;5045262;28;20336;-78
2022/07/26 11:32:06;;;;;;;;;;;22.70;68.90;;;;;;5040611;28;19992;-78
2022/07/26 11:34:34;;;;;;;;;;;22.70;69.30;;;;;;5041749;28;19929;-78
2022/07/26 11:37:02;;;;;;;;;;;22.70;68.40;;;;;;5040557;28;19924;-78
2022/07/26 11:39:30;;;;;;;;;;;22.70;68.10;;;;;;5041287;28;19925;-78
2022/07/26 11:41:57;;;;;;;;;;;22.70;68.20;;;;;;5038053;28;19924;-78
2022/07/26 11:44:24;;;;;;;;;;;22.70;68.60;;;;;;5039670;28;19933;-77
2022/07/26 11:46:51;;;;;;;;;;;22.80;68.60;;;;;;5040855;28;19932;-78
2022/07/26 11:49:19;;;;;;;;;;;22.80;68.50;;;;;;5040839;28;19970;-78
2022/07/26 11:51:51;;;;;;;;;;;22.80;68.90;;;;;;5044883;28;20406;-78
2022/07/26 11:54:18;;;;;;;;;;;22.80;68.90;;;;;;5028720;28;19928;-78
2022/07/26 11:56:52;;;;;;;;;;;22.80;69.20;;;;;;5039823;28;19967;-77
2022/07/26 11:59:19;;;;;;;;;;;22.80;69.40;;;;;;5038935;28;19964;-78
2022/07/26 12:01:46;;;;;;;;;;;22.90;68.90;;;;;;5041437;28;19925;-78
2022/07/26 12:04:18;;;;;;;;;;;22.90;68.70;;;;;;5036618;28;20425;-78
2022/07/26 12:06:44;;;;;;;;;;;22.90;68.80;;;;;;5039442;28;19933;-78
2022/07/26 12:09:27;;;;;;;;;;;22.90;69.00;;;;;;5039623;28;19936;-78
2022/07/26 12:11:54;;;;;;;;;;;22.90;68.80;;;;;;5027158;28;19955;-77
2022/07/26 12:14:24;;;;;;;;;;;23.00;68.60;;;;;;5042511;28;19967;-78
2022/07/26 12:16:51;;;;;;;;;;;23.00;68.40;;;;;;5023607;28;19929;-78
2022/07/26 12:19:26;;;;;;;;;;;23.00;68.20;;;;;;5031931;28;19928;-77
2022/07/26 12:21:54;;;;;;;;;;;23.10;68.20;;;;;;5040399;28;19925;-78
2022/07/26 12:24:35;;;;;;;;;;;23.10;67.70;;;;;;5035376;28;19935;-78
2022/07/26 12:27:06;;;;;;;;;;;23.20;67.60;;;;;;5036119;28;19975;-78
2022/07/26 12:29:35;;;;;;;;;;;23.20;68.00;;;;;;5045249;28;19925;-78
2022/07/26 12:32:03;;;;;;;;;;;23.20;67.60;;;;;;5039354;28;19933;-78
2022/07/26 12:34:30;;;;;;;;;;;23.20;67.50;;;;;;5040192;28;19936;-78
2022/07/26 12:37:05;;;;;;;;;;;23.30;68.20;;;;;;5041806;28;19925;-78
2022/07/26 12:39:32;;;;;;;;;;;23.30;67.50;;;;;;5045902;28;19928;-78
2022/07/26 12:42:20;;;;;;;;;;;23.40;67.20;;;;;;5020945;28;19925;-78
2022/07/26 12:44:47;;;;;;;;;;;23.40;67.30;;;;;;5035564;28;19956;-78
2022/07/26 12:47:14;;;;;;;;;;;23.50;66.20;;;;;;5036864;28;19944;-77
2022/07/26 12:49:40;;;;;;;;;;;23.60;65.90;;;;;;5040121;28;19951;-78
2022/07/26 12:52:07;;;;;;;;;;;23.60;66.20;;;;;;5045471;28;20619;-78
2022/07/26 12:54:34;;;;;;;;;;;23.60;65.90;;;;;;5046204;28;19978;-78
2022/07/26 12:57:02;;;;;;;;;;;23.70;66.10;;;;;;5044805;28;20421;-78
2022/07/26 12:59:29;;;;;;;;;;;23.70;66.20;;;;;;5040786;28;20053;-78
2022/07/26 13:01:56;;;;;;;;;;;23.70;66.20;;;;;;5042654;28;19932;-78
2022/07/26 13:04:23;;;;;;;;;;;23.70;66.40;;;;;;5041424;28;19932;-78
2022/07/26 13:06:50;;;;;;;;;;;23.80;66.60;;;;;;5045246;28;20330;-77
2022/07/26 13:09:17;;;;;;;;;;;23.80;66.00;;;;;;5043360;28;19996;-78
2022/07/26 13:11:44;;;;;;;;;;;23.80;65.80;;;;;;5048275;28;19925;-78
2022/07/26 13:14:12;;;;;;;;;;;23.80;65.80;;;;;;5047742;28;20020;-78
2022/07/26 13:16:39;;;;;;;;;;;23.90;65.50;;;;;;5042383;28;19925;-78
2022/07/26 13:19:06;;;;;;;;;;;24.00;65.10;;;;;;5035902;28;19932;-78
2022/07/26 13:21:33;;;;;;;;;;;24.00;65.20;;;;;;5042880;28;19925;-77
2022/07/26 13:24:00;;;;;;;;;;;24.00;65.30;;;;;;5026074;28;20035;-78
2022/07/26 13:26:26;;;;;;;;;;;24.00;65.10;;;;;;5048130;28;19925;-78
2022/07/26 13:28:53;;;;;;;;;;;24.10;65.00;;;;;;5040891;28;19944;-78
2022/07/26 13:31:21;;;;;;;;;;;24.00;64.90;;;;;;5044844;28;19925;-78
2022/07/26 13:33:48;;;;;;;;;;;24.00;65.00;;;;;;5044601;28;19986;-78
2022/07/26 13:36:15;;;;;;;;;;;24.10;65.20;;;;;;5044477;28;19971;-78
2022/07/26 13:38:42;;;;;;;;;;;24.10;65.20;;;;;;5044862;28;19929;-78
2022/07/26 13:41:09;;;;;;;;;;;24.10;64.90;;;;;;5037077;28;19929;-78
2022/07/26 13:43:36;;;;;;;;;;;24.10;64.50;;;;;;5024992;28;19983;-78
2022/07/26 13:46:03;;;;;;;;;;;24.20;64.60;;;;;;5031821;28;20634;-78
2022/07/26 13:48:31;;;;;;;;;;;24.20;64.20;;;;;;5043991;28;20140;-78
2022/07/26 13:50:58;;;;;;;;;;;24.30;64.20;;;;;;5026678;28;19925;-78
2022/07/26 13:53:25;;;;;;;;;;;24.30;63.90;;;;;;5043071;28;19933;-78
2022/07/26 13:55:52;;;;;;;;;;;24.30;64.30;;;;;;5048794;28;19933;-78
2022/07/26 13:58:20;;;;;;;;;;;24.40;64.70;;;;;;5047483;28;20403;-78
2022/07/26 14:00:47;;;;;;;;;;;24.30;64.80;;;;;;5028591;28;20364;-78
2022/07/26 14:03:14;;;;;;;;;;;24.40;64.90;;;;;;5045288;28;19925;-78
2022/07/26 14:05:42;;;;;;;;;;;24.40;65.10;;;;;;5045813;28;19939;-78
2022/07/26 14:08:09;;;;;;;;;;;24.40;64.70;;;;;;5039081;28;19928;-77
2022/07/26 14:10:38;;;;;;;;;;;24.50;64.60;;;;;;5025985;28;20357;-78
2022/07/26 14:13:05;;;;;;;;;;;24.60;64.70;;;;;;5041151;28;19925;-78
2022/07/26 14:15:32;;;;;;;;;;;24.60;63.70;;;;;;5049325;28;19943;-78
2022/07/26 14:17:59;;;;;;;;;;;24.60;64.30;;;;;;5040468;28;20020;-78
2022/07/26 14:20:26;;;;;;;;;;;24.60;64.30;;;;;;5027269;28;20305;-78
2022/07/26 14:22:56;;;;;;;;;;;24.70;64.00;;;;;;5042156;28;19937;-78
2022/07/26 14:25:24;;;;;;;;;;;24.70;64.30;;;;;;5038787;28;19925;-78